Time;durP1;ratioP1;P1;durP2;ratioP2;P2;SDS_P1;SDS_P2;PMS_P1;PMS_P2;Temp;Humidity;BMP_temperature;BMP_pressure;BME280_temperature;BME280_humidity;BME280_pressure;Samples;Min_cycle;Max_cycle;Signal;HPM_P1;HPM_P2
2022/10/12 00:00:01;;;;;;;6.60;4.75;;;19.90;59.30;;;;;;5016219;28;20205;-70
2022/10/12 00:02:39;;;;;;;6.20;5.07;;;19.90;59.40;;;;;;5017289;28;20593;-70
2022/10/12 00:05:07;;;;;;;6.00;4.97;;;19.90;59.40;;;;;;5016279;28;20196;-70
2022/10/12 00:07:34;;;;;;;5.25;4.75;;;19.80;59.30;;;;;;5016601;28;20208;-70
2022/10/12 00:10:01;;;;;;;6.25;5.07;;;19.90;59.40;;;;;;5015969;28;20192;-70
2022/10/12 00:12:30;;;;;;;9.10;5.00;;;19.90;59.30;;;;;;5015943;28;20270;-70
2022/10/12 00:14:57;;;;;;;6.43;4.93;;;19.80;59.30;;;;;;5015982;28;20204;-70
2022/10/12 00:17:24;;;;;;;5.43;4.90;;;19.90;59.30;;;;;;5015862;28;20200;-70
2022/10/12 00:19:51;;;;;;;6.00;5.00;;;19.90;59.30;;;;;;5016040;28;20208;-70
2022/10/12 00:22:18;;;;;;;7.38;4.88;;;19.80;59.20;;;;;;5015687;28;20225;-70
2022/10/12 00:24:45;;;;;;;5.95;4.75;;;19.80;59.20;;;;;;5015745;28;20246;-70
2022/10/12 00:27:12;;;;;;;5.00;4.50;;;19.80;59.20;;;;;;5017231;28;20675;-70
2022/10/12 00:29:40;;;;;;;5.40;4.78;;;19.80;59.20;;;;;;5015801;28;20200;-70
2022/10/12 00:32:08;;;;;;;9.20;5.40;;;19.80;59.20;;;;;;5016952;28;20212;-70
2022/10/12 00:34:35;;;;;;;7.38;4.72;;;19.80;59.10;;;;;;5015724;28;20549;-70
2022/10/12 00:37:02;;;;;;;5.03;4.50;;;19.80;59.10;;;;;;5016750;28;20170;-70
2022/10/12 00:39:29;;;;;;;8.38;4.90;;;19.80;59.10;;;;;;5015721;28;20734;-70
2022/10/12 00:41:56;;;;;;;5.57;4.70;;;19.80;59.10;;;;;;5015314;28;20212;-70
2022/10/12 00:44:37;;;;;;;5.90;4.88;;;19.70;59.00;;;;;;5015102;28;20196;-70
2022/10/12 00:47:09;;;;;;;5.85;5.13;;;19.70;58.90;;;;;;4999073;28;20307;-70
2022/10/12 00:49:36;;;;;;;5.93;4.97;;;19.70;58.90;;;;;;5015223;28;20203;-70
2022/10/12 00:52:06;;;;;;;5.55;4.93;;;19.70;59.00;;;;;;5015178;28;20224;-70
2022/10/12 00:54:36;;;;;;;5.43;4.85;;;19.70;58.80;;;;;;5015247;28;20224;-70
2022/10/12 00:57:04;;;;;;;5.65;4.85;;;19.70;58.90;;;;;;5015646;28;20225;-70
2022/10/12 00:59:34;;;;;;;5.63;4.95;;;19.70;59.00;;;;;;5015205;28;20197;-70
2022/10/12 01:02:01;;;;;;;5.97;4.95;;;19.70;59.00;;;;;;5015092;28;20248;-70
2022/10/12 01:04:29;;;;;;;6.03;4.60;;;19.60;58.90;;;;;;5014963;28;20574;-70
2022/10/12 01:06:57;;;;;;;6.57;5.07;;;19.70;59.00;;;;;;5014824;28;20212;-70
2022/10/12 01:09:24;;;;;;;5.85;5.20;;;19.60;59.00;;;;;;5014871;28;20236;-70
2022/10/12 01:11:51;;;;;;;6.35;4.75;;;19.60;58.90;;;;;;5014823;28;20243;-70
2022/10/12 01:14:18;;;;;;;5.00;4.47;;;19.60;58.90;;;;;;5016290;28;20189;-70
2022/10/12 01:16:50;;;;;;;5.68;5.07;;;19.70;59.10;;;;;;5014839;28;20275;-70
2022/10/12 01:19:25;;;;;;;6.57;5.13;;;19.60;59.00;;;;;;5014821;28;20246;-70
2022/10/12 01:21:56;;;;;;;5.40;4.75;;;19.60;59.10;;;;;;5014604;28;20699;-70
2022/10/12 01:24:33;;;;;;;5.55;4.97;;;19.60;59.10;;;;;;5014628;28;20561;-70
2022/10/12 01:27:09;;;;;;;5.60;4.90;;;19.60;59.00;;;;;;5014540;28;20205;-70
2022/10/12 01:30:05;;;;;;;5.30;4.85;;;19.60;59.10;;;;;;5014542;28;20196;-70
2022/10/12 01:32:34;;;;;;;5.85;5.32;;;19.60;59.10;;;;;;5014491;28;20642;-71
2022/10/12 01:35:03;;;;;;;5.93;5.25;;;19.60;59.10;;;;;;5014308;28;20208;-71
2022/10/12 01:37:35;;;;;;;5.30;4.80;;;19.60;59.10;;;;;;5014291;28;20201;-71
2022/10/12 01:40:04;;;;;;;5.63;5.03;;;19.60;59.10;;;;;;5015474;28;20251;-71
2022/10/12 01:49:01;;;;;;;6.18;5.20;;;19.50;59.00;;;;;;5008485;28;20247;-70
2022/10/12 01:51:33;;;;;;;6.22;5.10;;;19.50;58.90;;;;;;5013900;28;20208;-70
2022/10/12 01:54:04;;;;;;;6.40;5.03;;;19.50;59.00;;;;;;5013766;28;20228;-70
2022/10/12 01:56:34;;;;;;;5.55;4.95;;;19.50;59.00;;;;;;5013563;28;20247;-70
2022/10/12 01:59:04;;;;;;;5.15;4.60;;;19.50;59.00;;;;;;5013739;28;20208;-70
2022/10/12 02:01:33;;;;;;;6.63;5.55;;;19.50;59.00;;;;;;5030305;28;20235;-72
2022/10/12 02:04:04;;;;;;;6.20;5.07;;;19.50;58.90;;;;;;5013567;28;20699;-72
2022/10/12 02:06:34;;;;;;;5.38;4.60;;;19.40;58.80;;;;;;5013976;28;20679;-72
2022/10/12 02:09:04;;;;;;;4.82;4.30;;;19.40;58.80;;;;;;5013637;28;20279;-72
2022/10/12 02:11:31;;;;;;;5.32;4.82;;;19.50;59.00;;;;;;5013764;28;20201;-72
2022/10/12 02:14:01;;;;;;;6.28;4.90;;;19.40;58.90;;;;;;5013299;28;20593;-72
2022/10/12 02:16:31;;;;;;;6.45;5.03;;;19.40;59.00;;;;;;5013590;28;20181;-72
2022/10/12 02:18:58;;;;;;;6.32;5.15;;;19.40;59.00;;;;;;5013756;28;20566;-72
2022/10/12 02:21:29;;;;;;;5.65;5.00;;;19.50;58.90;;;;;;5013361;28;20609;-72
2022/10/12 02:24:01;;;;;;;6.07;5.03;;;19.40;59.00;;;;;;5013991;28;20216;-72
2022/10/12 02:26:29;;;;;;;5.70;5.20;;;19.40;59.00;;;;;;4997059;28;20721;-71
2022/10/12 02:28:56;;;;;;;6.00;4.85;;;19.40;59.00;;;;;;5013213;28;20709;-71
2022/10/12 02:31:27;;;;;;;5.80;5.03;;;19.40;59.00;;;;;;5014912;28;20192;-72
2022/10/12 02:33:57;;;;;;;6.45;5.50;;;19.40;59.00;;;;;;5013429;28;20251;-72
2022/10/12 02:36:29;;;;;;;5.80;4.70;;;19.40;59.00;;;;;;5014399;28;20176;-72
2022/10/12 02:38:59;;;;;;;5.80;4.90;;;19.30;58.90;;;;;;5013296;28;20265;-72
2022/10/12 02:41:29;;;;;;;7.30;4.88;;;19.30;58.90;;;;;;5013758;28;20208;-72
2022/10/12 02:43:57;;;;;;;5.32;4.85;;;19.30;58.90;;;;;;5013301;28;20217;-72
2022/10/12 02:46:25;;;;;;;5.80;5.07;;;19.30;58.90;;;;;;5012894;28;20312;-72
2022/10/12 02:48:53;;;;;;;8.00;4.88;;;19.30;58.80;;;;;;5013244;28;20725;-72
2022/10/12 02:51:20;;;;;;;8.43;4.70;;;19.30;58.90;;;;;;5012913;28;20247;-72
2022/10/12 02:53:49;;;;;;;6.22;5.22;;;19.20;58.90;;;;;;5012775;28;20628;-72
2022/10/12 02:56:16;;;;;;;5.82;4.95;;;19.30;59.00;;;;;;5012992;28;20196;-72
2022/10/12 02:58:43;;;;;;;6.03;4.85;;;19.30;59.20;;;;;;5014193;28;20292;-72
2022/10/12 03:01:10;;;;;;;5.38;4.82;;;19.20;59.00;;;;;;5012674;28;20201;-72
2022/10/12 03:03:37;;;;;;;6.22;4.97;;;19.20;59.00;;;;;;5012466;28;20201;-72
2022/10/12 03:06:05;;;;;;;5.53;5.03;;;19.20;58.90;;;;;;5011928;28;20217;-72
2022/10/12 03:08:32;;;;;;;5.60;4.90;;;19.20;59.00;;;;;;5012633;28;20197;-72
2022/10/12 03:11:02;;;;;;;5.60;4.72;;;19.20;59.00;;;;;;5012422;28;20212;-72
2022/10/12 03:13:29;;;;;;;6.28;5.70;;;19.20;59.00;;;;;;5012637;28;20204;-72
2022/10/12 03:16:01;;;;;;;5.07;4.43;;;19.20;59.00;;;;;;5012488;28;20247;-72
2022/10/12 03:18:28;;;;;;;5.03;4.63;;;19.20;59.30;;;;;;5012397;28;20280;-72
2022/10/12 03:20:55;;;;;;;5.00;4.50;;;19.20;59.20;;;;;;5012403;28;20208;-72
2022/10/12 03:23:22;;;;;;;4.70;4.25;;;19.20;59.30;;;;;;5012350;28;20201;-72
2022/10/12 03:25:49;;;;;;;5.50;4.78;;;19.20;59.40;;;;;;5012266;28;20217;-72
2022/10/12 03:28:18;;;;;;;4.82;4.43;;;19.20;59.20;;;;;;5012853;28;20205;-72
2022/10/12 03:30:44;;;;;;;4.63;4.22;;;19.20;59.20;;;;;;5012434;28;20254;-72
2022/10/12 03:33:11;;;;;;;4.88;4.38;;;19.30;59.20;;;;;;5028889;28;20232;-72
2022/10/12 03:35:38;;;;;;;4.72;4.25;;;19.30;59.20;;;;;;4996161;28;20220;-72
2022/10/12 03:38:06;;;;;;;7.43;4.53;;;19.40;59.20;;;;;;5013854;28;20189;-72
2022/10/12 03:40:34;;;;;;;4.93;4.07;;;19.40;58.90;;;;;;5012687;28;20569;-72
2022/10/12 03:43:01;;;;;;;4.88;4.38;;;19.40;58.70;;;;;;5013654;28;20207;-72
2022/10/12 03:45:30;;;;;;;5.28;4.43;;;19.50;58.60;;;;;;5013008;28;20713;-72
2022/10/12 03:47:57;;;;;;;5.72;4.22;;;19.50;59.00;;;;;;5012321;28;20250;-72
2022/10/12 03:50:24;;;;;;;5.55;4.25;;;19.60;58.30;;;;;;5013136;28;20207;-72
2022/10/12 03:52:51;;;;;;;5.10;4.60;;;19.60;58.20;;;;;;5012539;28;20228;-72
2022/10/12 03:55:18;;;;;;;5.28;4.85;;;19.60;58.20;;;;;;5012483;28;20213;-72
2022/10/12 03:57:45;;;;;;;4.75;4.35;;;19.60;58.10;;;;;;5012922;28;20211;-72
2022/10/12 04:00:13;;;;;;;4.90;4.40;;;19.60;58.20;;;;;;5013625;28;20276;-72
2022/10/12 04:02:41;;;;;;;4.78;4.38;;;19.60;58.30;;;;;;5013603;28;20189;-72
2022/10/12 04:05:09;;;;;;;5.45;4.95;;;19.60;58.20;;;;;;5012703;28;20227;-72
2022/10/12 04:07:36;;;;;;;4.57;4.15;;;19.60;58.30;;;;;;5011990;28;20227;-72
2022/10/12 04:10:03;;;;;;;6.47;4.40;;;19.60;58.20;;;;;;5012274;28;20213;-72
2022/10/12 04:12:30;;;;;;;4.80;4.32;;;19.60;58.20;;;;;;5012743;28;20610;-72
2022/10/12 04:14:57;;;;;;;5.00;4.50;;;19.60;58.20;;;;;;5012769;28;20221;-72
2022/10/12 04:17:24;;;;;;;5.65;4.40;;;19.60;58.20;;;;;;5012580;28;20193;-72
2022/10/12 04:19:53;;;;;;;5.28;4.75;;;19.60;58.30;;;;;;5017098;28;20243;-72
2022/10/12 04:22:20;;;;;;;5.85;4.80;;;19.60;58.30;;;;;;5015778;28;20197;-72
2022/10/12 04:24:47;;;;;;;5.22;4.80;;;19.60;58.30;;;;;;5015808;28;20311;-72
2022/10/12 04:27:14;;;;;;;7.20;6.50;;;19.60;58.30;;;;;;5017205;28;20216;-72
2022/10/12 04:29:41;;;;;;;12.23;8.00;;;19.60;58.30;;;;;;5017441;28;20205;-72
2022/10/12 04:32:09;;;;;;;5.95;5.22;;;19.60;58.60;;;;;;4999458;28;20291;-72
2022/10/12 04:34:36;;;;;;;6.45;5.50;;;19.50;58.30;;;;;;5015423;28;20698;-72
2022/10/12 04:37:05;;;;;;;6.20;5.60;;;19.50;58.20;;;;;;5016939;28;20658;-71
2022/10/12 04:39:32;;;;;;;5.75;5.10;;;19.50;58.50;;;;;;5015708;28;20547;-71
2022/10/12 04:41:59;;;;;;;5.22;4.72;;;19.50;58.50;;;;;;5015607;28;20201;-71
2022/10/12 04:44:26;;;;;;;8.02;5.20;;;19.50;58.90;;;;;;5015300;28;20220;-71
2022/10/12 04:46:53;;;;;;;7.43;5.40;;;19.50;59.00;;;;;;5015317;28;20227;-71
2022/10/12 04:49:19;;;;;;;5.30;4.80;;;19.50;59.40;;;;;;5015491;28;20211;-71
2022/10/12 04:51:48;;;;;;;6.20;4.93;;;19.50;59.30;;;;;;5015354;28;20207;-71
2022/10/12 04:54:16;;;;;;;6.18;5.03;;;19.50;59.20;;;;;;5015192;28;20228;-70
2022/10/12 04:56:43;;;;;;;6.57;5.30;;;19.50;59.20;;;;;;5015562;28;20185;-71
2022/10/12 04:59:11;;;;;;;7.05;5.47;;;19.50;59.30;;;;;;5015002;28;20673;-71
2022/10/12 05:01:37;;;;;;;6.25;4.88;;;19.50;59.40;;;;;;5016281;28;20207;-71
2022/10/12 05:04:05;;;;;;;6.18;5.40;;;19.50;59.40;;;;;;5015006;28;20227;-71
2022/10/12 05:06:31;;;;;;;7.00;5.13;;;19.50;59.50;;;;;;5015170;28;20339;-71
2022/10/12 05:08:59;;;;;;;8.20;5.80;;;19.50;59.60;;;;;;5014655;28;20201;-71
2022/10/12 05:11:27;;;;;;;5.45;4.95;;;19.50;59.70;;;;;;5014752;28;20354;-71
2022/10/12 05:13:54;;;;;;;5.82;4.93;;;19.50;59.70;;;;;;5016271;28;20248;-71
2022/10/12 05:16:21;;;;;;;5.65;4.80;;;19.50;59.80;;;;;;5014765;28;20287;-71
2022/10/12 05:18:48;;;;;;;6.70;5.20;;;19.50;59.90;;;;;;5014674;28;20543;-71
2022/10/12 05:21:15;;;;;;;5.10;4.60;;;19.50;60.00;;;;;;5014837;28;20197;-71
2022/10/12 05:23:42;;;;;;;6.93;5.47;;;19.50;59.80;;;;;;5015331;28;20209;-71
2022/10/12 05:26:09;;;;;;;7.25;4.57;;;19.50;59.60;;;;;;5014534;28;20200;-71
2022/10/12 05:28:37;;;;;;;5.72;5.13;;;19.50;59.60;;;;;;5015984;28;20566;-71
2022/10/12 05:31:04;;;;;;;6.35;4.68;;;19.50;59.60;;;;;;5013554;28;20209;-71
2022/10/12 05:33:31;;;;;;;5.35;4.85;;;19.50;59.60;;;;;;5014372;28;20296;-71
2022/10/12 05:35:58;;;;;;;5.90;4.70;;;19.50;59.60;;;;;;5014497;28;20224;-71
2022/10/12 05:38:25;;;;;;;5.03;4.63;;;19.50;59.50;;;;;;5015790;28;20199;-71
2022/10/12 05:40:52;;;;;;;4.95;4.55;;;19.50;59.40;;;;;;5014728;28;20251;-71
2022/10/12 05:43:19;;;;;;;5.97;4.80;;;19.40;59.30;;;;;;5014556;28;20231;-71
2022/10/12 05:45:47;;;;;;;5.63;4.90;;;19.40;59.20;;;;;;5014337;28;20225;-71
2022/10/12 05:48:14;;;;;;;5.20;4.70;;;19.50;59.10;;;;;;5014047;28;20221;-71
2022/10/12 05:50:41;;;;;;;4.57;4.18;;;19.40;59.10;;;;;;5014082;28;20271;-71
2022/10/12 05:53:08;;;;;;;5.07;4.57;;;19.50;59.00;;;;;;5014121;28;20212;-71
2022/10/12 05:55:35;;;;;;;5.80;5.30;;;19.50;59.00;;;;;;5014169;28;20212;-71
2022/10/12 05:58:02;;;;;;;6.47;4.78;;;19.50;58.80;;;;;;5014182;28;20208;-71
2022/10/12 06:00:29;;;;;;;5.68;5.00;;;19.40;58.80;;;;;;5014201;28;20201;-71
2022/10/12 06:02:57;;;;;;;6.15;4.60;;;19.40;58.80;;;;;;5015424;28;20262;-71
2022/10/12 06:05:25;;;;;;;4.95;4.47;;;19.50;59.00;;;;;;5014232;28;20691;-71
2022/10/12 06:07:52;;;;;;;5.32;4.68;;;19.50;59.00;;;;;;5014571;28;20323;-71
2022/10/12 06:10:19;;;;;;;4.85;4.45;;;19.50;59.10;;;;;;5014152;28;20204;-71
2022/10/12 06:12:48;;;;;;;7.07;4.53;;;19.50;59.00;;;;;;5014240;28;20709;-71
2022/10/12 06:15:15;;;;;;;4.80;4.40;;;19.50;59.00;;;;;;5014109;28;20229;-71
2022/10/12 06:17:42;;;;;;;4.75;4.30;;;19.50;59.00;;;;;;5013991;28;20225;-71
2022/10/12 06:20:11;;;;;;;5.25;4.57;;;19.60;58.80;;;;;;5014197;28;20208;-71
2022/10/12 06:22:38;;;;;;;5.47;3.95;;;19.60;58.70;;;;;;5015682;28;20189;-71
2022/10/12 06:25:06;;;;;;;4.70;4.30;;;19.70;58.60;;;;;;5016819;28;20242;-71
2022/10/12 06:27:33;;;;;;;5.22;4.65;;;19.60;58.50;;;;;;5015723;28;20243;-71
2022/10/12 06:30:00;;;;;;;5.32;4.82;;;19.70;58.60;;;;;;5014864;28;20613;-71
2022/10/12 06:32:27;;;;;;;5.20;4.80;;;19.70;58.50;;;;;;5014210;28;20292;-71
2022/10/12 06:34:54;;;;;;;5.70;5.07;;;19.70;58.30;;;;;;5013855;28;20263;-71
2022/10/12 06:37:22;;;;;;;6.05;5.55;;;19.80;58.40;;;;;;5013313;28;20295;-71
2022/10/12 06:39:50;;;;;;;7.00;4.93;;;19.70;58.30;;;;;;5013495;28;20227;-71
2022/10/12 06:42:16;;;;;;;5.97;5.00;;;19.80;58.40;;;;;;5012865;28;20227;-71
2022/10/12 06:44:49;;;;;;;5.88;5.28;;;19.80;58.30;;;;;;5013253;28;20236;-71
2022/10/12 06:47:16;;;;;;;8.80;5.82;;;19.80;58.40;;;;;;5014027;28;20217;-71
2022/10/12 06:49:43;;;;;;;6.13;5.22;;;19.70;58.30;;;;;;5013067;28;20197;-71
2022/10/12 06:52:10;;;;;;;6.65;5.70;;;19.70;58.40;;;;;;5013972;28;20211;-71
2022/10/12 06:54:40;;;;;;;7.03;5.30;;;19.70;58.50;;;;;;5014120;28;20251;-71
2022/10/12 06:57:07;;;;;;;7.28;5.40;;;19.70;58.50;;;;;;5012896;28;20200;-71
2022/10/12 06:59:34;;;;;;;6.15;5.28;;;19.70;58.50;;;;;;5012738;28;20204;-71
2022/10/12 07:02:01;;;;;;;7.32;6.00;;;19.70;58.60;;;;;;5012770;28;20200;-71
2022/10/12 07:04:28;;;;;;;8.82;5.78;;;19.80;58.60;;;;;;5013907;28;20209;-71
2022/10/12 07:06:55;;;;;;;7.30;6.05;;;19.80;58.60;;;;;;5012840;28;20200;-71
2022/10/12 07:09:22;;;;;;;6.18;5.50;;;19.80;58.70;;;;;;5012890;28;20228;-71
2022/10/12 07:11:50;;;;;;;6.93;6.30;;;19.80;58.70;;;;;;5013058;28;20505;-71
2022/10/12 07:14:17;;;;;;;7.40;6.65;;;19.80;58.60;;;;;;5013158;28;20706;-71
2022/10/12 07:16:44;;;;;;;8.63;7.15;;;19.80;58.50;;;;;;5012741;28;20693;-71
2022/10/12 07:19:11;;;;;;;8.73;7.70;;;19.80;58.50;;;;;;5013080;28;20204;-71
2022/10/12 07:21:38;;;;;;;7.32;6.63;;;19.80;58.40;;;;;;4996358;28;20204;-71
2022/10/12 07:24:05;;;;;;;8.90;7.75;;;19.90;58.40;;;;;;5013641;28;20228;-71
2022/10/12 07:26:32;;;;;;;9.05;8.10;;;19.90;58.30;;;;;;5012485;28;20223;-71
2022/10/12 07:29:02;;;;;;;8.30;6.93;;;19.80;58.20;;;;;;5012465;28;20589;-71
2022/10/12 07:31:29;;;;;;;8.98;7.20;;;19.90;58.30;;;;;;5013146;28;20199;-71
2022/10/12 07:33:56;;;;;;;10.50;7.35;;;19.90;58.20;;;;;;5012510;28;20283;-71
2022/10/12 07:36:23;;;;;;;9.07;7.07;;;19.90;58.20;;;;;;5012316;28;20200;-71
2022/10/12 07:38:50;;;;;;;12.13;7.72;;;19.90;58.10;;;;;;4996192;28;20193;-71
2022/10/12 07:41:17;;;;;;;10.15;7.25;;;19.90;58.00;;;;;;5012243;28;20201;-70
2022/10/12 07:43:45;;;;;;;8.27;7.40;;;20.00;58.10;;;;;;5013627;28;20646;-70
2022/10/12 07:46:13;;;;;;;7.50;6.80;;;20.00;58.70;;;;;;5013914;28;20192;-70
2022/10/12 07:48:40;;;;;;;9.30;7.28;;;20.00;58.10;;;;;;5012122;28;20224;-70
2022/10/12 07:51:09;;;;;;;10.45;8.68;;;20.00;58.00;;;;;;5012360;28;20578;-70
2022/10/12 07:53:38;;;;;;;10.00;7.20;;;20.00;58.00;;;;;;5014151;28;20247;-70
2022/10/12 07:56:06;;;;;;;11.60;9.15;;;20.00;58.00;;;;;;5016189;28;20208;-70
2022/10/12 07:58:33;;;;;;;9.52;8.52;;;20.10;58.10;;;;;;5016241;28;20189;-70
2022/10/12 08:01:04;;;;;;;7.38;6.68;;;20.10;57.90;;;;;;5017261;28;20208;-70
2022/10/12 08:03:32;;;;;;;11.88;7.68;;;20.10;57.90;;;;;;5016168;28;20584;-70
2022/10/12 08:05:59;;;;;;;6.95;6.20;;;20.10;57.80;;;;;;5015940;28;20200;-70
2022/10/12 08:08:26;;;;;;;8.43;7.25;;;20.10;57.80;;;;;;5015768;28;20224;-70
2022/10/12 08:10:53;;;;;;;7.97;6.70;;;20.20;57.70;;;;;;5015729;28;20204;-70
2022/10/12 08:13:20;;;;;;;7.05;6.35;;;20.20;57.60;;;;;;5017083;28;20192;-70
2022/10/12 08:15:49;;;;;;;10.90;7.82;;;20.20;57.60;;;;;;4999571;28;20655;-70
2022/10/12 08:18:16;;;;;;;8.00;7.00;;;20.20;57.60;;;;;;5032145;28;20659;-70
2022/10/12 08:20:44;;;;;;;7.85;7.15;;;20.30;57.70;;;;;;5016230;28;20687;-70
2022/10/12 08:23:11;;;;;;;7.22;6.13;;;20.30;57.60;;;;;;5015744;28;20647;-70
2022/10/12 08:25:38;;;;;;;8.13;7.25;;;20.30;57.50;;;;;;5015606;28;20225;-70
2022/10/12 08:28:05;;;;;;;9.02;7.28;;;20.30;57.50;;;;;;5016105;28;20224;-70
2022/10/12 08:30:32;;;;;;;7.97;7.18;;;20.40;57.60;;;;;;5017123;28;20193;-70
2022/10/12 08:32:59;;;;;;;7.35;6.65;;;20.40;57.40;;;;;;5016127;28;20200;-71
2022/10/12 08:35:26;;;;;;;6.70;5.68;;;20.40;57.20;;;;;;5016183;28;20614;-70
2022/10/12 08:37:55;;;;;;;6.47;5.88;;;20.40;57.10;;;;;;5015484;28;20193;-70
2022/10/12 08:40:25;;;;;;;6.63;5.75;;;20.50;57.10;;;;;;5016988;28;20663;-70
2022/10/12 08:42:55;;;;;;;6.22;5.63;;;20.50;57.00;;;;;;5015207;28;20281;-70
2022/10/12 08:45:31;;;;;;;6.75;6.05;;;20.60;56.90;;;;;;5015093;28;20224;-70
2022/10/12 08:48:00;;;;;;;6.07;5.57;;;20.60;56.80;;;;;;5015568;28;20278;-70
2022/10/12 08:50:30;;;;;;;6.05;5.38;;;20.70;56.70;;;;;;5015308;28;20651;-70
2022/10/12 08:53:00;;;;;;;6.55;5.85;;;20.70;56.60;;;;;;5015264;28;20254;-70
2022/10/12 08:55:33;;;;;;;6.10;5.57;;;20.80;56.60;;;;;;5016441;28;20213;-70
2022/10/12 08:58:00;;;;;;;7.28;6.57;;;20.80;56.40;;;;;;5015693;28;20208;-70
2022/10/12 09:00:27;;;;;;;5.70;5.20;;;20.90;56.30;;;;;;5014994;28;20251;-70
2022/10/12 09:03:01;;;;;;;5.75;5.07;;;20.90;56.20;;;;;;5015278;28;20292;-70
2022/10/12 09:05:31;;;;;;;6.40;5.68;;;21.00;56.10;;;;;;5014785;28;20232;-70
2022/10/12 09:08:01;;;;;;;6.72;6.03;;;21.00;56.00;;;;;;5014798;28;20263;-70
2022/10/12 09:10:35;;;;;;;8.05;6.43;;;21.10;56.00;;;;;;5015355;28;20300;-70
2022/10/12 09:13:07;;;;;;;5.70;5.20;;;21.10;55.80;;;;;;5015213;28;20263;-70
2022/10/12 09:15:37;;;;;;;5.90;5.40;;;21.10;55.60;;;;;;5014812;28;20227;-70
2022/10/12 09:18:05;;;;;;;6.15;5.57;;;21.20;55.50;;;;;;5014655;28;20193;-70
2022/10/12 09:20:34;;;;;;;6.70;4.90;;;21.20;55.50;;;;;;5015176;28;20205;-70
2022/10/12 09:23:07;;;;;;;7.28;5.90;;;21.20;55.50;;;;;;5015257;28;20204;-70
2022/10/12 09:25:33;;;;;;;6.00;5.40;;;21.20;55.60;;;;;;5014546;28;20217;-70
2022/10/12 09:28:11;;;;;;;5.93;5.35;;;21.20;55.50;;;;;;5014494;28;20673;-70
2022/10/12 09:30:39;;;;;;;5.45;4.95;;;21.20;55.60;;;;;;5014419;28;20279;-70
2022/10/12 09:33:14;;;;;;;6.35;5.30;;;21.30;55.60;;;;;;4998506;28;20247;-70
2022/10/12 09:35:41;;;;;;;5.80;5.18;;;21.30;55.50;;;;;;5014353;28;20698;-70
2022/10/12 09:38:10;;;;;;;6.22;5.05;;;21.20;55.50;;;;;;5014473;28;20295;-70
2022/10/12 09:40:37;;;;;;;6.50;5.80;;;21.30;56.00;;;;;;5014456;28;20203;-70
2022/10/12 09:43:04;;;;;;;5.47;4.97;;;21.20;55.30;;;;;;5014281;28;20258;-71
2022/10/12 09:45:32;;;;;;;5.00;4.55;;;21.30;55.40;;;;;;5015501;28;20215;-71
2022/10/12 09:48:16;;;;;;;5.30;4.90;;;21.30;55.30;;;;;;5014024;28;20292;-71
2022/10/12 09:50:53;;;;;;;7.30;5.88;;;21.30;55.30;;;;;;5014104;28;20244;-71
2022/10/12 09:53:29;;;;;;;5.20;4.68;;;21.20;55.50;;;;;;5013958;28;20574;-71
2022/10/12 09:55:58;;;;;;;5.28;4.78;;;21.20;55.50;;;;;;5015198;28;20212;-70
2022/10/12 09:58:25;;;;;;;5.75;5.00;;;21.30;55.50;;;;;;5014312;28;20193;-70
2022/10/12 10:01:17;;;;;;;4.47;4.07;;;21.20;55.60;;;;;;5013968;28;20249;-70
2022/10/12 10:03:45;;;;;;;5.40;4.90;;;21.20;55.50;;;;;;5014438;28;20540;-70
2022/10/12 10:06:14;;;;;;;5.20;4.70;;;21.20;55.50;;;;;;5013767;28;20193;-70
2022/10/12 10:08:43;;;;;;;6.28;5.68;;;21.20;55.60;;;;;;5013750;28;20282;-70
2022/10/12 10:11:15;;;;;;;5.38;4.88;;;21.20;55.50;;;;;;5013682;28;20197;-70
2022/10/12 10:13:46;;;;;;;4.50;4.10;;;21.20;55.50;;;;;;5013519;28;20288;-71
2022/10/12 10:16:13;;;;;;;4.55;4.10;;;21.20;55.50;;;;;;5013192;28;20224;-71
2022/10/12 10:18:41;;;;;;;5.80;5.03;;;21.20;55.60;;;;;;5013515;28;20670;-71
2022/10/12 10:21:09;;;;;;;4.70;4.30;;;21.20;55.60;;;;;;5014760;28;20245;-71
2022/10/12 10:23:39;;;;;;;5.40;4.78;;;21.20;55.50;;;;;;5013771;28;20200;-71
2022/10/12 10:26:08;;;;;;;5.10;4.70;;;21.20;55.50;;;;;;5014166;28;20201;-70
2022/10/12 10:28:36;;;;;;;4.80;4.40;;;21.20;55.60;;;;;;5013525;28;20319;-70
2022/10/12 10:31:04;;;;;;;4.70;4.30;;;21.20;55.50;;;;;;5013468;28;20200;-70
2022/10/12 10:33:32;;;;;;;5.80;4.28;;;21.20;55.60;;;;;;5013757;28;20197;-70
2022/10/12 10:36:04;;;;;;;4.30;3.90;;;21.20;55.60;;;;;;5013412;28;20224;-70
2022/10/12 10:38:33;;;;;;;4.50;4.10;;;21.20;55.50;;;;;;5013889;28;20255;-70
2022/10/12 10:41:00;;;;;;;4.28;3.88;;;21.20;55.50;;;;;;5013968;28;20208;-70
2022/10/12 10:43:29;;;;;;;4.63;4.22;;;21.30;55.60;;;;;;5013753;28;20562;-70
2022/10/12 10:45:58;;;;;;;4.43;4.05;;;21.30;55.60;;;;;;5014861;28;20556;-70
2022/10/12 10:48:26;;;;;;;3.90;3.60;;;21.30;55.50;;;;;;5013233;28;20208;-70
2022/10/12 10:50:55;;;;;;;4.50;4.10;;;21.30;55.40;;;;;;5013377;28;20268;-70
2022/10/12 10:53:24;;;;;;;4.45;3.90;;;21.30;55.40;;;;;;5014727;28;20198;-70
2022/10/12 10:55:52;;;;;;;4.15;3.85;;;21.30;55.40;;;;;;5013348;28;20224;-71
2022/10/12 10:58:24;;;;;;;4.40;4.00;;;21.30;55.40;;;;;;5013123;28;20197;-71
2022/10/12 11:00:54;;;;;;;4.32;3.92;;;21.30;55.30;;;;;;5013151;28;20657;-71
2022/10/12 11:03:23;;;;;;;5.05;4.10;;;21.30;55.30;;;;;;5013952;28;20188;-70
2022/10/12 11:05:52;;;;;;;4.50;4.10;;;21.30;55.30;;;;;;5013063;28;20308;-70
2022/10/12 11:08:20;;;;;;;4.30;3.97;;;21.30;55.30;;;;;;5013079;28;20632;-70
2022/10/12 11:10:48;;;;;;;4.03;3.72;;;21.30;55.20;;;;;;5013099;28;20247;-70
2022/10/12 11:13:18;;;;;;;4.82;4.10;;;21.30;55.10;;;;;;5012909;28;20200;-70
2022/10/12 11:15:45;;;;;;;4.15;3.75;;;21.30;55.10;;;;;;5013222;28;20220;-70
2022/10/12 11:18:18;;;;;;;4.45;4.05;;;21.40;55.00;;;;;;5013360;28;20231;-70
2022/10/12 11:20:52;;;;;;;4.35;3.95;;;21.40;54.90;;;;;;5013503;28;20189;-70
2022/10/12 11:23:24;;;;;;;3.72;3.42;;;21.40;54.90;;;;;;5013575;28;20221;-70
2022/10/12 11:26:00;;;;;;;4.80;4.40;;;21.50;54.90;;;;;;5014699;28;20228;-70
2022/10/12 11:28:28;;;;;;;3.92;3.63;;;21.40;54.80;;;;;;5015551;28;20207;-70
2022/10/12 11:30:56;;;;;;;4.43;4.03;;;21.40;54.70;;;;;;5018059;28;20208;-70
2022/10/12 11:33:25;;;;;;;4.32;3.97;;;21.50;54.70;;;;;;5017190;28;20196;-70
2022/10/12 11:35:52;;;;;;;4.32;3.92;;;21.50;54.70;;;;;;5016910;28;20220;-70
2022/10/12 11:38:21;;;;;;;4.57;4.18;;;21.50;54.60;;;;;;5018087;28;20232;-70
2022/10/12 11:40:50;;;;;;;4.90;4.40;;;21.50;54.60;;;;;;5017022;28;20192;-70
2022/10/12 11:43:20;;;;;;;4.05;3.65;;;21.50;54.50;;;;;;5016752;28;20681;-70
2022/10/12 11:45:48;;;;;;;4.57;4.18;;;21.50;54.50;;;;;;5016802;28;20221;-70
2022/10/12 11:48:17;;;;;;;4.40;4.00;;;21.50;54.50;;;;;;5016863;28;20247;-70
2022/10/12 11:50:46;;;;;;;4.57;4.18;;;21.50;54.60;;;;;;5016548;28;20307;-70
2022/10/12 11:53:16;;;;;;;4.47;4.07;;;21.50;54.50;;;;;;5016712;28;20200;-70
2022/10/12 11:55:50;;;;;;;3.80;3.50;;;21.50;54.40;;;;;;5016229;28;20224;-70
2022/10/12 11:58:19;;;;;;;3.90;3.60;;;21.50;54.40;;;;;;5016246;28;20718;-70
2022/10/12 12:01:01;;;;;;;4.70;4.30;;;21.60;54.50;;;;;;5016093;28;20215;-70
2022/10/12 12:03:30;;;;;;;3.80;3.50;;;21.60;54.40;;;;;;5017050;28;20243;-70
2022/10/12 12:06:14;;;;;;;4.03;3.65;;;21.60;54.40;;;;;;5015944;28;20283;-70
2022/10/12 12:08:57;;;;;;;4.20;3.80;;;21.60;54.40;;;;;;5016027;28;20196;-71
2022/10/12 12:11:25;;;;;;;4.18;3.78;;;21.60;54.30;;;;;;5016035;28;20220;-71
2022/10/12 12:13:56;;;;;;;3.60;3.30;;;21.60;54.20;;;;;;5015912;28;20200;-71
2022/10/12 12:16:30;;;;;;;3.80;3.50;;;21.70;54.30;;;;;;5015740;28;20201;-71
2022/10/12 12:19:41;;;;;;;4.00;3.70;;;21.60;54.20;;;;;;5015777;28;20240;-71
2022/10/12 12:22:49;;;;;;;3.80;3.47;;;21.70;54.30;;;;;;5015608;28;20291;-70
2022/10/12 12:25:30;;;;;;;4.30;3.70;;;21.60;54.30;;;;;;5016385;28;20606;-70
2022/10/12 12:27:58;;;;;;;4.35;3.95;;;21.70;54.60;;;;;;5015687;28;20200;-70
2022/10/12 12:30:31;;;;;;;4.63;3.72;;;21.70;54.50;;;;;;5016667;28;20216;-70
2022/10/12 12:32:59;;;;;;;4.32;3.97;;;21.70;54.70;;;;;;5015320;28;20228;-70
2022/10/12 12:35:29;;;;;;;4.50;3.97;;;21.60;54.80;;;;;;5016826;28;20213;-70
2022/10/12 12:38:02;;;;;;;4.82;4.10;;;21.70;54.90;;;;;;5015252;28;20280;-70
2022/10/12 12:40:29;;;;;;;5.60;3.95;;;21.70;55.60;;;;;;5016324;28;20180;-70
2022/10/12 12:43:21;;;;;;;3.83;3.42;;;21.70;55.00;;;;;;5016565;28;20190;-70
2022/10/12 12:45:55;;;;;;;4.25;3.85;;;21.70;54.80;;;;;;5015126;28;20228;-70
2022/10/12 12:49:01;;;;;;;3.92;3.53;;;21.70;54.90;;;;;;5015460;28;20212;-71
2022/10/12 12:51:47;;;;;;;4.28;3.55;;;21.70;55.20;;;;;;5015080;28;20705;-71
2022/10/12 12:54:18;;;;;;;5.85;3.78;;;21.70;55.20;;;;;;5016310;28;20217;-71
2022/10/12 12:57:12;;;;;;;4.00;3.70;;;21.70;55.70;;;;;;5015035;28;20203;-71
2022/10/12 13:00:13;;;;;;;4.10;3.70;;;21.70;55.10;;;;;;5015967;28;20442;-71
2022/10/12 13:03:08;;;;;;;4.05;3.65;;;21.80;55.10;;;;;;5014990;28;20196;-71